Revere, Massachusetts
Current Conditions -  °F | °C
As of 6:54 PM on Wednesday 28 Jan 2015 (Local Time) from KBOS Reporting Station
Few Clouds Few Clouds  
Wind Chill: 12°   Ceiling: Unl
Heat Index: 23°   Visibility: 10mi
Dew Point:   Wind: 10mph
Humidity: 53%   Direction: 320°NW
Pressure: 30.12"   Gusts: NA
Location:  42.41°N, 71.01°W
Report Text: KBOS 282354Z 32009KT 10SM FEW140 M05/M13 A3012 RMK AO2 SLP199 T10501133 11044 21072 51033
Loading
Personal Weather Stations






























Interactive Weather Map New forecast layout! Learn more

10-Day Weather Forecast

Advertisements
Track Severe Weather on mobile